Time;durP1;ratioP1;P1;durP2;ratioP2;P2;SDS_P1;SDS_P2;PMS_P1;PMS_P2;Temp;Humidity;BMP_temperature;BMP_pressure;BME280_temperature;BME280_humidity;BME280_pressure;Samples;Min_cycle;Max_cycle;Signal;HPM_P1;HPM_P2
2022/05/06 00:01:46;;;;;;;11.05;4.60;;;;;;;20.13;42.71;99062.31;4471063;32;20142;-81
2022/05/06 00:04:16;;;;;;;9.82;4.47;;;;;;;20.15;42.84;99067.53;4469929;32;20133;-81
2022/05/06 00:06:42;;;;;;;9.77;4.30;;;;;;;20.20;43.18;99054.56;4471189;32;20131;-81
2022/05/06 00:09:08;;;;;;;9.90;4.68;;;;;;;20.17;42.89;99063.72;4471087;32;20151;-81
2022/05/06 00:11:33;;;;;;;12.15;4.80;;;;;;;20.16;42.64;99058.50;4469564;32;20115;-81
2022/05/06 00:13:59;;;;;;;11.82;4.72;;;;;;;20.10;42.77;99059.88;4470702;32;20120;-81
2022/05/06 00:16:25;;;;;;;10.48;4.80;;;;;;;20.08;43.06;99051.16;4470770;32;20076;-81
2022/05/06 00:18:51;;;;;;;10.03;4.80;;;;;;;20.06;43.27;99058.47;4469263;32;20472;-81
2022/05/06 00:21:17;;;;;;;12.27;4.82;;;;;;;20.08;43.33;99058.34;4470614;32;20153;-81
2022/05/06 00:23:43;;;;;;;10.18;4.87;;;;;;;20.07;43.53;99054.84;4469412;32;20436;-81
2022/05/06 00:26:08;;;;;;;9.80;4.70;;;;;;;20.04;43.61;99058.59;4470563;32;20092;-81
2022/05/06 00:28:34;;;;;;;9.30;4.50;;;;;;;20.09;43.64;99050.19;4469384;32;20077;-81
2022/05/06 00:31:01;;;;;;;10.15;4.70;;;;;;;20.10;43.75;99049.19;4470443;32;20148;-81
2022/05/06 00:33:27;;;;;;;9.82;4.82;;;;;;;20.02;43.96;99059.75;4470469;32;20127;-81
2022/05/06 00:35:53;;;;;;;11.80;5.10;;;;;;;19.98;44.20;99052.97;4469086;32;20104;-81
2022/05/06 00:38:19;;;;;;;10.27;4.87;;;;;;;19.90;44.47;99058.16;4470466;32;20116;-81
2022/05/06 00:40:45;;;;;;;9.80;4.72;;;;;;;19.96;44.34;99062.97;4470299;32;20451;-81
2022/05/06 00:43:11;;;;;;;11.60;5.40;;;;;;;19.88;44.49;99062.81;4469042;32;20172;-81
2022/05/06 00:45:47;;;;;;;9.10;4.65;;;;;;;19.87;44.58;99064.63;4457988;32;20778;-81
2022/05/06 00:48:13;;;;;;;11.40;4.85;;;;;;;19.91;44.97;99067.88;4472377;32;20088;-81
2022/05/06 00:50:38;;;;;;;12.35;6.12;;;;;;;19.83;44.99;99077.41;4472629;32;20444;-81
2022/05/06 00:53:06;;;;;;;11.40;5.68;;;;;;;19.81;44.94;99074.03;4472512;32;20116;-81
2022/05/06 00:55:33;;;;;;;;;;;;;;;19.74;45.21;99080.91;4471815;32;20093;-81
2022/05/06 00:57:58;;;;;;;12.15;5.97;;;;;;;19.82;45.12;99074.91;4471419;32;19971;-81
2022/05/06 01:00:24;;;;;;;12.10;5.70;;;;;;;19.72;45.37;99077.53;4471383;32;20264;-81
2022/05/06 01:02:49;;;;;;;12.73;6.60;;;;;;;19.70;45.62;99082.12;4472557;32;20085;-80
2022/05/06 01:05:15;;;;;;;10.73;5.85;;;;;;;19.48;46.46;99079.63;4472615;32;20376;-81
2022/05/06 01:07:41;;;;;;;11.65;5.85;;;;;;;19.58;46.23;99080.53;4472341;32;20135;-81
2022/05/06 01:10:07;;;;;;;12.20;6.03;;;;;;;19.65;46.06;99071.00;4471320;32;20156;-81
2022/05/06 01:12:33;;;;;;;10.50;5.72;;;;;;;19.61;46.29;99080.25;4472422;32;20093;-81
2022/05/06 01:14:59;;;;;;;12.60;6.10;;;;;;;19.59;46.41;99087.56;4471327;32;20092;-81
2022/05/06 01:17:24;;;;;;;13.48;5.93;;;;;;;19.62;46.58;99080.13;4472405;32;20103;-81
2022/05/06 01:19:50;;;;;;;11.77;5.70;;;;;;;19.62;46.88;99082.81;4457847;32;20131;-80
2022/05/06 01:22:16;;;;;;;10.77;5.00;;;;;;;19.60;47.11;99090.09;4472297;32;20507;-81
2022/05/06 01:24:41;;;;;;;10.75;5.65;;;;;;;19.71;46.96;99093.66;4471019;32;20095;-81
2022/05/06 01:27:09;;;;;;;14.27;5.70;;;;;;;19.72;47.13;99095.38;4472118;32;20179;-81
2022/05/06 01:29:36;;;;;;;13.07;5.93;;;;;;;19.68;47.33;99091.25;4471099;32;20077;-81
2022/05/06 01:32:01;;;;;;;11.27;5.57;;;;;;;19.69;47.25;99083.09;4470811;32;20453;-81
2022/05/06 01:34:29;;;;;;;11.27;5.50;;;;;;;19.72;47.21;99090.91;4472108;32;20118;-81
2022/05/06 01:36:56;;;;;;;11.50;5.85;;;;;;;19.74;47.23;99082.72;4472041;32;20081;-81
2022/05/06 01:39:32;;;;;;;11.43;5.85;;;;;;;19.76;46.76;99094.13;4470925;32;20081;-81
2022/05/06 01:42:00;;;;;;;10.55;5.32;;;;;;;19.78;46.80;99090.34;4472086;32;20104;-81
2022/05/06 01:44:27;;;;;;;11.32;5.70;;;;;;;19.73;46.69;99095.25;4470914;32;20121;-81
2022/05/06 01:46:53;;;;;;;;;;;;;;;19.64;45.52;99090.66;4472407;32;20396;-81
2022/05/06 01:49:19;;;;;;;12.70;6.07;;;;;;;19.76;44.29;99080.75;4472060;32;19976;-81
2022/05/06 01:51:45;;;;;;;11.02;5.78;;;;;;;19.76;44.13;99078.09;4471831;32;20112;-81
2022/05/06 01:54:10;;;;;;;11.20;5.30;;;;;;;19.65;44.26;99081.69;4470726;32;20122;-81
2022/05/06 01:56:35;;;;;;;12.30;5.70;;;;;;;19.66;44.46;99078.00;4471054;32;20357;-81
2022/05/06 01:59:01;;;;;;;12.60;5.70;;;;;;;19.65;44.77;99079.84;4471774;32;20080;-81
2022/05/06 02:01:27;;;;;;;10.00;5.10;;;;;;;19.73;44.88;99089.06;4471911;32;20093;-81
2022/05/06 02:06:36;;;;;;;10.75;5.40;;;;;;;19.79;45.15;99083.16;4470767;32;20247;-81
2022/05/06 02:09:02;;;;;;;12.10;5.43;;;;;;;19.77;45.17;99077.13;4471782;32;20092;-81
2022/05/06 02:11:27;;;;;;;11.57;5.93;;;;;;;19.76;45.06;99081.63;4471831;32;20421;-81
2022/05/06 02:13:53;;;;;;;11.15;5.57;;;;;;;19.76;44.69;99072.72;4471714;32;20100;-81
2022/05/06 02:16:19;;;;;;;12.43;5.87;;;;;;;19.72;44.79;99068.66;4470716;32;20471;-81
2022/05/06 02:18:44;;;;;;;11.95;5.72;;;;;;;19.66;45.17;99078.00;4471565;32;20110;-81
2022/05/06 02:21:10;;;;;;;11.55;5.82;;;;;;;19.70;45.06;99067.91;4471665;32;20110;-81
2022/05/06 02:23:35;;;;;;;12.18;6.15;;;;;;;19.67;45.11;99065.53;4471698;32;20144;-81
2022/05/06 02:26:01;;;;;;;12.05;6.53;;;;;;;19.62;44.90;99073.94;4471676;32;20085;-81
2022/05/06 02:28:26;;;;;;;12.20;5.87;;;;;;;19.57;44.84;99068.16;4471743;32;20167;-81
2022/05/06 02:33:36;;;;;;;12.63;6.20;;;;;;;19.54;45.21;99079.94;4471740;32;20143;-81
2022/05/06 02:36:02;;;;;;;11.38;6.03;;;;;;;19.52;45.32;99068.53;4471280;32;20085;-81
2022/05/06 02:38:28;;;;;;;11.00;6.30;;;;;;;19.48;45.14;99074.28;4471633;32;20160;-81
2022/05/06 02:40:54;;;;;;;11.15;5.75;;;;;;;19.48;44.82;99075.12;4470442;32;20586;-81
2022/05/06 02:43:19;;;;;;;11.70;5.78;;;;;;;19.47;45.12;99073.47;4471912;32;20092;-81
2022/05/06 02:45:45;;;;;;;11.43;6.12;;;;;;;19.47;45.39;99068.12;4471856;32;20724;-81
2022/05/06 02:48:10;;;;;;;11.70;6.40;;;;;;;19.46;45.47;99069.06;4471823;32;20080;-81
2022/05/06 02:50:36;;;;;;;13.57;6.53;;;;;;;19.20;45.61;99079.31;4471809;32;20478;-81
2022/05/06 02:53:03;;;;;;;10.95;5.85;;;;;;;19.30;45.52;99077.59;4470723;32;20173;-81
2022/05/06 02:55:28;;;;;;;11.00;5.62;;;;;;;19.25;45.58;99077.13;4471825;32;20095;-81
2022/05/06 02:57:54;;;;;;;11.73;6.10;;;;;;;19.28;45.70;99076.00;4471690;32;20103;-82
2022/05/06 03:00:19;;;;;;;12.32;6.22;;;;;;;19.24;46.05;99075.44;4470616;32;20101;-82
2022/05/06 03:02:45;;;;;;;12.20;6.18;;;;;;;19.29;45.63;99067.84;4471787;32;20092;-82
2022/05/06 03:05:10;;;;;;;11.68;5.78;;;;;;;19.25;45.95;99069.09;4471765;32;20119;-81
2022/05/06 03:07:36;;;;;;;12.40;6.47;;;;;;;19.27;46.00;99067.16;4471513;32;20084;-80
2022/05/06 03:10:03;;;;;;;10.30;5.68;;;;;;;19.23;45.99;99060.38;4471755;32;20464;-79
2022/05/06 03:12:30;;;;;;;11.87;6.00;;;;;;;19.14;46.11;99070.03;4471451;32;20172;-79
2022/05/06 03:14:57;;;;;;;11.38;5.87;;;;;;;19.16;46.20;99057.41;4470351;32;20089;-79
2022/05/06 03:17:23;;;;;;;12.73;6.47;;;;;;;19.17;46.26;99058.25;4468558;32;20448;-78
2022/05/06 03:19:48;;;;;;;12.27;6.47;;;;;;;19.22;45.99;99062.22;4471346;32;20112;-77
2022/05/06 03:22:15;;;;;;;12.15;5.93;;;;;;;19.23;45.88;99074.56;4486971;32;20102;-79
2022/05/06 03:24:42;;;;;;;13.27;6.22;;;;;;;19.22;46.33;99072.91;4472850;32;20096;-81
2022/05/06 03:27:59;;;;;;;11.55;6.45;;;;;;;19.24;46.09;99070.94;4487215;32;20084;-81
2022/05/06 03:29:52;;;;;;;13.68;6.68;;;;;;;19.08;46.57;99075.88;4486683;32;20088;-81
2022/05/06 03:32:18;;;;;;;12.30;6.35;;;;;;;18.76;47.66;99076.78;4486636;32;20119;-81
2022/05/06 03:34:44;;;;;;;12.02;6.50;;;;;;;18.92;47.37;99072.84;4472577;32;20463;-80
2022/05/06 03:37:09;;;;;;;11.73;5.62;;;;;;;18.97;47.47;99084.81;4486587;32;20093;-80
2022/05/06 03:39:35;;;;;;;11.05;5.55;;;;;;;19.01;47.75;99090.75;4472565;32;20100;-79
2022/05/06 03:42:00;;;;;;;11.38;6.20;;;;;;;19.02;47.89;99087.94;4486791;32;20092;-80
2022/05/06 03:44:25;;;;;;;12.37;6.00;;;;;;;19.07;47.98;99079.56;4486657;32;20185;-80
2022/05/06 03:46:51;;;;;;;12.02;6.05;;;;;;;19.04;48.01;99082.47;4486713;32;20460;-81
2022/05/06 03:49:16;;;;;;;13.35;6.12;;;;;;;19.07;47.49;99078.72;4486641;32;20092;-81
2022/05/06 03:51:45;;;;;;;11.57;5.90;;;;;;;19.02;47.38;99081.75;4472244;32;20114;-81
2022/05/06 03:54:10;;;;;;;12.48;6.53;;;;;;;19.00;47.50;99097.91;4486607;32;20110;-81
2022/05/06 03:56:36;;;;;;;12.30;5.82;;;;;;;18.98;47.58;99083.84;4486540;32;20084;-82
2022/05/06 03:59:01;;;;;;;10.75;5.60;;;;;;;18.78;47.72;99079.31;4486408;32;20117;-81
2022/05/06 04:01:26;;;;;;;11.12;6.20;;;;;;;18.96;47.43;99083.12;4486526;32;20489;-82
2022/05/06 04:03:52;;;;;;;12.10;6.10;;;;;;;19.00;47.73;99087.22;4486425;32;20085;-83
2022/05/06 04:06:17;;;;;;;12.20;5.87;;;;;;;18.94;47.56;99090.41;4486321;32;20360;-82
2022/05/06 04:08:43;;;;;;;12.30;5.82;;;;;;;19.01;47.36;99099.59;4486288;32;20435;-81
2022/05/06 04:11:09;;;;;;;11.65;5.55;;;;;;;19.11;47.22;99096.16;4486463;32;20114;-81
2022/05/06 04:13:35;;;;;;;13.40;6.00;;;;;;;19.13;47.40;99099.53;4472218;32;20088;-82
2022/05/06 04:16:01;;;;;;;12.63;6.00;;;;;;;19.17;46.92;99099.13;4459195;32;20096;-81
2022/05/06 04:18:27;;;;;;;10.32;5.62;;;;;;;18.91;47.46;99106.72;4486200;32;20096;-81
2022/05/06 04:23:38;;;;;;;10.07;5.62;;;;;;;19.32;46.61;99105.00;4488219;32;20164;-83
2022/05/06 04:26:07;;;;;;;13.52;6.43;;;;;;;19.32;47.15;99110.34;4488055;32;20431;-82
2022/05/06 04:28:34;;;;;;;13.62;6.55;;;;;;;19.01;47.12;99112.97;4474054;32;20093;-82
2022/05/06 04:31:00;;;;;;;11.68;6.15;;;;;;;19.26;46.61;99118.88;4488212;32;20164;-83
2022/05/06 04:33:26;;;;;;;11.77;5.68;;;;;;;19.42;46.38;99115.75;4473982;32;20136;-83
2022/05/06 04:35:56;;;;;;;13.65;6.78;;;;;;;19.31;46.60;99127.34;4488010;32;20076;-83
2022/05/06 04:38:26;;;;;;;10.65;5.45;;;;;;;19.65;46.12;99121.78;4487969;32;20104;-83
2022/05/06 04:40:53;;;;;;;12.20;6.07;;;;;;;19.92;45.78;99115.03;4488291;32;20092;-80
2022/05/06 04:43:20;;;;;;;;;;;;;;;20.10;45.25;99124.09;4474352;32;20113;-80
2022/05/06 04:45:46;;;;;;;11.95;5.85;;;;;;;20.45;44.18;99117.41;4488252;32;19980;-80
2022/05/06 04:48:12;;;;;;;12.07;5.93;;;;;;;20.63;43.86;99128.31;4488237;32;20100;-80
2022/05/06 04:50:39;;;;;;;13.18;6.18;;;;;;;20.60;43.35;99125.91;4488169;32;20497;-80
2022/05/06 04:53:09;;;;;;;12.07;6.27;;;;;;;20.65;43.68;99128.16;4488186;32;20104;-82
2022/05/06 04:55:35;;;;;;;12.55;6.43;;;;;;;20.77;43.24;99124.37;4488093;32;20072;-82
2022/05/06 04:58:02;;;;;;;11.10;5.97;;;;;;;20.71;43.56;99124.94;4483907;32;20112;-82
2022/05/06 05:00:28;;;;;;;13.43;6.60;;;;;;;20.89;43.26;99133.13;4488061;32;20099;-82
2022/05/06 05:02:53;;;;;;;10.70;5.55;;;;;;;20.95;43.12;99140.56;4487966;32;20530;-82
2022/05/06 05:05:19;;;;;;;13.07;5.85;;;;;;;21.08;43.31;99135.78;4473409;32;20439;-82
2022/05/06 05:07:44;;;;;;;12.15;6.65;;;;;;;21.07;43.29;99135.91;4488303;32;20437;-82
2022/05/06 05:10:10;;;;;;;12.02;6.30;;;;;;;21.17;42.28;99129.56;4488204;32;20107;-82
2022/05/06 05:12:35;;;;;;;11.80;6.37;;;;;;;21.13;42.37;99143.38;4488083;32;20761;-82
2022/05/06 05:15:02;;;;;;;11.88;6.18;;;;;;;21.15;42.62;99126.19;4473774;32;20363;-82
2022/05/06 05:17:28;;;;;;;14.15;6.15;;;;;;;21.11;42.95;99137.31;4473914;32;20569;-83
2022/05/06 05:19:53;;;;;;;13.25;6.40;;;;;;;21.23;43.06;99135.31;4488175;32;20084;-83
2022/05/06 05:22:19;;;;;;;11.43;6.22;;;;;;;21.26;43.08;99141.25;4488153;32;20104;-83
2022/05/06 05:24:45;;;;;;;12.25;6.82;;;;;;;21.30;43.08;99145.31;4473825;32;20125;-83
2022/05/06 05:27:10;;;;;;;11.45;6.68;;;;;;;21.31;43.06;99149.72;4487878;32;20108;-84
2022/05/06 05:29:36;;;;;;;12.95;5.87;;;;;;;21.13;43.62;99140.69;4488040;32;20100;-83
2022/05/06 05:32:02;;;;;;;11.27;6.22;;;;;;;21.20;43.73;99139.97;4473808;32;20349;-83
2022/05/06 05:34:27;;;;;;;11.70;6.15;;;;;;;21.30;43.43;99142.66;4487997;32;20115;-83
2022/05/06 05:36:53;;;;;;;12.57;6.82;;;;;;;21.30;43.15;99142.66;4487871;32;20096;-83
2022/05/06 05:39:18;;;;;;;11.55;6.12;;;;;;;21.13;43.21;99138.88;4473624;32;20088;-83
2022/05/06 05:41:44;;;;;;;11.98;6.60;;;;;;;21.08;43.25;99149.16;4473515;32;20081;-83
2022/05/06 05:49:37;;;;;;;11.32;6.45;;;;;;;20.92;44.28;99151.56;4487774;32;20122;-83
2022/05/06 05:52:04;;;;;;;12.52;6.57;;;;;;;20.95;44.11;99152.12;4487668;32;20352;-83
2022/05/06 05:54:29;;;;;;;12.10;6.62;;;;;;;20.94;44.24;99155.81;4487612;32;20140;-83
2022/05/06 05:56:55;;;;;;;12.02;6.32;;;;;;;20.98;44.08;99157.22;4487591;32;20111;-83
2022/05/06 05:59:22;;;;;;;11.68;6.50;;;;;;;20.91;44.33;99153.41;4487941;32;20455;-83
2022/05/06 06:01:49;;;;;;;13.90;7.05;;;;;;;20.95;44.02;99149.44;4473648;32;20122;-83
2022/05/06 06:04:15;;;;;;;13.10;6.22;;;;;;;21.05;44.27;99156.66;4487843;32;20435;-83
2022/05/06 06:06:41;;;;;;;12.23;6.25;;;;;;;21.19;43.86;99166.94;4487819;32;20499;-83
2022/05/06 06:09:07;;;;;;;12.90;6.90;;;;;;;21.14;43.62;99159.31;4487705;32;20092;-83
2022/05/06 06:11:32;;;;;;;14.32;7.22;;;;;;;20.91;43.88;99157.91;4487871;32;20102;-83
2022/05/06 06:13:58;;;;;;;13.70;6.95;;;;;;;20.28;45.39;99171.56;4487674;32;20076;-83
2022/05/06 06:16:24;;;;;;;12.13;7.00;;;;;;;20.53;44.70;99163.06;4487714;32;20420;-83
2022/05/06 06:18:49;;;;;;;14.80;6.85;;;;;;;20.59;44.96;99167.91;4487764;32;20115;-83
2022/05/06 06:21:15;;;;;;;13.77;7.45;;;;;;;20.63;44.95;99160.44;4487710;32;20111;-83
2022/05/06 06:23:40;;;;;;;14.30;7.60;;;;;;;20.69;44.62;99167.91;4487786;32;20106;-83
2022/05/06 06:26:05;;;;;;;13.43;7.53;;;;;;;20.71;44.69;99160.59;4473337;32;20140;-83
2022/05/06 06:28:31;;;;;;;14.52;7.28;;;;;;;20.72;44.83;99169.47;4487625;32;20147;-83
2022/05/06 06:30:56;;;;;;;12.27;6.75;;;;;;;20.81;43.92;99164.09;4487673;32;20081;-83
2022/05/06 06:33:22;;;;;;;13.02;7.22;;;;;;;20.82;43.61;99164.94;4487687;32;20107;-83
2022/05/06 06:35:47;;;;;;;13.23;6.62;;;;;;;20.81;44.22;99166.78;4487406;32;20486;-83
2022/05/06 06:38:13;;;;;;;13.25;6.80;;;;;;;21.04;44.02;99169.19;4487592;32;20099;-83
2022/05/06 06:40:38;;;;;;;12.98;6.95;;;;;;;21.06;44.26;99169.06;4473294;32;20115;-83
2022/05/06 06:43:04;;;;;;;13.18;6.95;;;;;;;20.92;44.08;99173.84;4472521;32;20077;-83
2022/05/06 06:45:30;;;;;;;13.30;6.85;;;;;;;21.16;43.36;99168.06;4487278;32;20160;-83
2022/05/06 06:47:57;;;;;;;13.98;7.75;;;;;;;21.16;43.33;99170.72;4487336;32;20123;-83
2022/05/06 06:50:24;;;;;;;12.87;7.23;;;;;;;21.12;43.30;99161.28;4487358;32;20197;-83
2022/05/06 06:52:49;;;;;;;12.32;7.15;;;;;;;20.72;44.34;99158.75;4487194;32;20137;-83
2022/05/06 06:55:15;;;;;;;15.80;7.60;;;;;;;21.16;43.85;99161.84;4473070;32;20424;-83
2022/05/06 06:57:40;;;;;;;14.75;7.30;;;;;;;21.24;43.74;99161.97;4487130;32;20121;-83
2022/05/06 07:00:08;;;;;;;13.23;7.20;;;;;;;21.18;43.73;99166.06;4487245;32;20142;-83
2022/05/06 07:02:34;;;;;;;14.32;7.40;;;;;;;21.31;43.49;99164.97;4487232;32;20164;-83
2022/05/06 07:05:00;;;;;;;13.62;7.37;;;;;;;21.20;44.15;99168.63;4487103;32;20119;-83
2022/05/06 07:12:55;;;;;;;13.70;7.50;;;;;;;21.87;43.12;99158.78;4407572;32;20112;-83
2022/05/06 07:15:21;;;;;;;16.05;7.82;;;;;;;22.03;43.17;99166.19;4407380;32;20441;-83
2022/05/06 07:17:46;;;;;;;13.48;8.05;;;;;;;21.99;42.03;99162.94;4407459;32;20457;-83
2022/05/06 07:20:11;;;;;;;14.10;7.62;;;;;;;21.70;42.86;99173.78;4407450;32;20114;-83
2022/05/06 07:22:37;;;;;;;13.55;7.50;;;;;;;22.01;42.40;99164.66;4407421;32;20180;-83
2022/05/06 07:25:03;;;;;;;13.98;7.05;;;;;;;21.95;42.43;99166.91;4394824;32;20164;-83
2022/05/06 07:27:29;;;;;;;13.82;7.57;;;;;;;22.02;42.87;99159.16;4407377;32;20224;-83
2022/05/06 07:29:54;;;;;;;12.88;7.12;;;;;;;22.14;42.86;99160.63;4407374;32;20488;-83
2022/05/06 07:32:20;;;;;;;13.57;7.53;;;;;;;22.36;42.42;99162.09;4407338;32;20140;-83
2022/05/06 07:34:45;;;;;;;14.45;7.35;;;;;;;22.60;41.85;99159.81;4394696;32;20117;-83
2022/05/06 07:37:10;;;;;;;13.32;7.85;;;;;;;22.67;41.71;99158.22;4394507;32;20447;-83
2022/05/06 07:39:36;;;;;;;16.62;8.35;;;;;;;22.74;40.85;99159.31;4394522;32;20145;-83
2022/05/06 07:42:01;;;;;;;14.85;7.57;;;;;;;22.87;40.52;99166.97;4407277;32;20128;-83
2022/05/06 07:44:28;;;;;;;16.40;8.25;;;;;;;23.06;40.43;99164.16;4407222;32;20150;-83
2022/05/06 07:46:53;;;;;;;15.00;7.90;;;;;;;23.07;40.41;99170.41;4433723;32;20120;-83
2022/05/06 07:49:19;;;;;;;14.27;7.55;;;;;;;23.22;39.95;99171.56;4486847;32;20085;-83
2022/05/06 07:51:44;;;;;;;14.18;8.02;;;;;;;23.24;40.52;99174.94;4486761;32;20084;-83
2022/05/06 07:54:10;;;;;;;15.48;8.07;;;;;;;23.35;39.82;99168.44;4485483;32;20141;-83
2022/05/06 07:56:35;;;;;;;14.57;8.23;;;;;;;23.43;39.59;99165.84;4486945;32;20084;-83
2022/05/06 07:59:01;;;;;;;15.23;8.00;;;;;;;23.52;40.09;99164.88;4486796;32;20342;-83
2022/05/06 08:06:56;;;;;;;14.25;8.27;;;;;;;23.77;39.09;99161.50;4486753;32;20164;-83
2022/05/06 08:09:21;;;;;;;15.10;7.70;;;;;;;23.85;39.04;99159.72;4486391;32;20080;-83
2022/05/06 08:11:47;;;;;;;13.50;8.00;;;;;;;24.06;38.75;99159.31;4486374;32;20111;-83
2022/05/06 08:14:15;;;;;;;15.88;8.23;;;;;;;24.14;38.50;99159.38;4486419;32;20100;-83
2022/05/06 08:16:41;;;;;;;13.18;7.47;;;;;;;24.38;38.14;99165.00;4486360;32;20135;-83
2022/05/06 08:19:07;;;;;;;13.90;7.50;;;;;;;24.44;38.20;99161.69;4486325;32;20118;-83
2022/05/06 08:21:32;;;;;;;13.65;7.45;;;;;;;24.57;37.75;99169.31;4486628;32;20145;-83
2022/05/06 08:23:57;;;;;;;14.77;7.75;;;;;;;24.58;37.94;99166.44;4472075;32;20142;-83
2022/05/06 08:26:23;;;;;;;16.65;7.60;;;;;;;24.71;37.59;99166.81;4486618;32;20391;-83
2022/05/06 08:28:48;;;;;;;13.27;7.93;;;;;;;24.86;37.52;99161.63;4486451;32;20088;-83
2022/05/06 08:31:13;;;;;;;14.48;7.82;;;;;;;24.97;36.83;99160.44;4486502;32;20084;-83
2022/05/06 08:33:39;;;;;;;13.52;8.18;;;;;;;25.05;37.06;99159.62;4486403;32;20139;-83
2022/05/06 08:36:08;;;;;;;14.20;8.23;;;;;;;25.11;36.73;99156.25;4486433;32;20134;-83
2022/05/06 08:38:33;;;;;;;13.62;7.80;;;;;;;25.12;35.75;99157.94;4486297;32;20068;-83
2022/05/06 08:41:00;;;;;;;16.05;8.38;;;;;;;25.22;36.40;99152.38;4485993;32;20110;-83
2022/05/06 08:43:26;;;;;;;13.95;7.72;;;;;;;25.27;36.85;99156.28;4486213;32;20088;-83
2022/05/06 08:51:26;;;;;;;13.82;7.78;;;;;;;25.29;35.70;99164.22;4486077;32;20106;-83
2022/05/06 08:53:54;;;;;;;16.02;8.98;;;;;;;25.49;36.13;99170.91;4471684;32;20503;-83
2022/05/06 08:56:19;;;;;;;14.25;7.82;;;;;;;25.53;35.63;99166.03;4485862;32;20118;-83
2022/05/06 08:58:45;;;;;;;17.33;8.38;;;;;;;25.57;36.08;99171.94;4485773;32;20432;-83
2022/05/06 09:01:12;;;;;;;17.25;8.63;;;;;;;25.45;36.23;99171.44;4471415;32;20136;-83
2022/05/06 09:03:38;;;;;;;18.77;9.38;;;;;;;25.63;35.64;99165.84;4485723;32;20092;-83
2022/05/06 09:06:04;;;;;;;14.30;7.97;;;;;;;25.56;35.45;99165.69;4473044;32;20482;-83
2022/05/06 09:08:42;;;;;;;16.27;7.87;;;;;;;25.61;35.95;99165.19;4473676;32;20128;-83
2022/05/06 09:11:08;;;;;;;13.65;8.05;;;;;;;25.71;35.38;99155.06;4488076;32;20089;-83
2022/05/06 09:13:59;;;;;;;17.85;9.02;;;;;;;25.72;35.86;99164.81;4487951;32;20088;-83
2022/05/06 09:16:41;;;;;;;14.30;7.37;;;;;;;25.87;35.34;99164.97;4470879;32;20092;-83
2022/05/06 09:19:20;;;;;;;14.48;8.23;;;;;;;25.93;35.35;99167.00;4487881;32;20084;-83
2022/05/06 09:22:09;;;;;;;15.05;8.15;;;;;;;26.07;35.44;99160.88;4487957;32;20084;-83
2022/05/06 09:24:35;;;;;;;15.63;8.73;;;;;;;26.11;35.56;99161.34;4487949;32;20356;-83
2022/05/06 09:27:14;;;;;;;14.82;8.50;;;;;;;26.03;34.38;99158.69;4488006;32;20096;-83
2022/05/06 09:29:44;;;;;;;13.82;7.60;;;;;;;26.02;35.23;99167.81;4473679;32;20100;-83
2022/05/06 09:32:13;;;;;;;14.55;7.57;;;;;;;26.12;35.35;99160.34;4487887;32;20080;-83
2022/05/06 09:34:39;;;;;;;16.15;8.68;;;;;;;26.12;35.42;99171.16;4487837;32;20096;-83
2022/05/06 09:37:05;;;;;;;14.52;8.45;;;;;;;26.01;35.22;99168.84;4487613;32;20130;-83
2022/05/06 09:39:31;;;;;;;16.10;7.80;;;;;;;26.06;35.08;99161.06;4487687;32;20073;-83
2022/05/06 09:42:04;;;;;;;16.55;7.85;;;;;;;26.06;35.46;99158.38;4487674;32;20110;-83
2022/05/06 09:44:30;;;;;;;15.35;7.62;;;;;;;26.13;36.12;99162.03;4488025;32;20138;-83
2022/05/06 09:47:08;;;;;;;20.27;8.73;;;;;;;26.11;35.50;99160.53;4473773;32;20092;-83
2022/05/06 09:49:43;;;;;;;13.43;7.90;;;;;;;26.18;35.58;99159.66;4487666;32;20080;-83
2022/05/06 09:52:09;;;;;;;14.75;7.93;;;;;;;26.34;34.71;99160.59;4473473;32;20226;-83
2022/05/06 09:54:35;;;;;;;16.02;8.50;;;;;;;26.17;35.58;99162.53;4460217;32;20170;-83
2022/05/06 09:57:04;;;;;;;13.82;7.72;;;;;;;26.16;35.29;99158.16;4487700;32;20415;-83
2022/05/06 09:59:30;;;;;;;14.45;8.15;;;;;;;26.18;35.79;99166.91;4473356;32;20108;-83
2022/05/06 10:01:56;;;;;;;14.40;8.15;;;;;;;26.10;35.69;99159.69;4487642;32;20424;-83
2022/05/06 10:04:22;;;;;;;14.38;7.65;;;;;;;26.15;36.11;99157.28;4473239;32;20105;-83
2022/05/06 10:06:49;;;;;;;14.95;7.62;;;;;;;26.15;35.89;99154.59;4487613;32;20109;-83
2022/05/06 10:09:20;;;;;;;17.87;6.97;;;;;;;26.02;35.39;99154.31;4473274;32;20089;-83
2022/05/06 10:11:46;;;;;;;14.25;6.93;;;;;;;26.12;36.20;99156.81;4473381;32;20349;-83
2022/05/06 10:14:13;;;;;;;12.40;7.70;;;;;;;26.34;36.13;99150.62;4473248;32;20126;-83
2022/05/06 10:16:39;;;;;;;13.05;7.47;;;;;;;26.41;35.25;99153.47;4472418;32;20165;-83
2022/05/06 10:19:27;;;;;;;13.80;7.32;;;;;;;26.32;35.22;99144.56;4473385;32;20092;-84
2022/05/06 10:21:53;;;;;;;12.00;7.12;;;;;;;26.57;35.19;99147.13;4487577;32;20107;-83
2022/05/06 10:24:20;;;;;;;13.60;7.35;;;;;;;26.72;34.58;99148.09;4487442;32;20127;-83
2022/05/06 10:26:50;;;;;;;12.85;6.53;;;;;;;26.81;34.37;99149.72;4487627;32;20088;-84
2022/05/06 10:32:27;;;;;;;14.30;6.53;;;;;;;27.15;34.33;99136.78;4487508;32;20095;-83
2022/05/06 10:34:55;;;;;;;11.52;5.75;;;;;;;27.36;34.06;99136.97;4487344;32;20093;-83
2022/05/06 10:37:20;;;;;;;15.48;6.20;;;;;;;27.50;33.25;99140.72;4487337;32;20167;-83
2022/05/06 10:39:46;;;;;;;11.40;6.10;;;;;;;27.54;32.47;99133.91;4487328;32;20139;-83
2022/05/06 10:42:16;;;;;;;12.15;6.18;;;;;;;27.66;32.05;99137.00;4473034;32;20084;-83
2022/05/06 10:44:49;;;;;;;11.20;5.15;;;;;;;27.72;31.56;99135.41;4487275;32;20100;-83
2022/05/06 10:47:20;;;;;;;11.82;5.93;;;;;;;27.82;32.39;99127.88;4473117;32;20100;-83
2022/05/06 10:49:52;;;;;;;11.05;5.85;;;;;;;27.67;32.55;99127.88;4487289;32;20095;-83
2022/05/06 10:52:20;;;;;;;12.48;6.10;;;;;;;27.61;32.59;99121.31;4487116;32;20147;-84
2022/05/06 10:55:13;;;;;;;13.50;6.30;;;;;;;27.48;32.32;99120.28;4487339;32;20247;-83
2022/05/06 10:57:50;;;;;;;10.98;5.55;;;;;;;27.47;31.67;99119.44;4484864;32;20083;-83
2022/05/06 11:00:16;;;;;;;12.27;5.18;;;;;;;27.43;32.00;99118.16;4487447;32;20102;-83
2022/05/06 11:02:42;;;;;;;12.43;5.87;;;;;;;27.53;31.06;99112.47;4487507;32;20110;-83
2022/05/06 11:05:17;;;;;;;11.65;5.87;;;;;;;27.64;30.71;99122.81;4473288;32;20108;-83
2022/05/06 11:07:45;;;;;;;12.05;5.57;;;;;;;27.83;30.46;99119.56;4487668;32;20107;-83
2022/05/06 11:10:16;;;;;;;13.62;5.37;;;;;;;27.72;30.45;99116.47;4460061;32;20080;-83
2022/05/06 11:12:49;;;;;;;12.73;5.15;;;;;;;27.65;29.94;99105.56;4487190;32;20436;-83
2022/05/06 11:15:20;;;;;;;12.80;5.57;;;;;;;27.65;30.66;99110.97;4472902;32;20139;-83
2022/05/06 11:17:46;;;;;;;13.10;5.68;;;;;;;27.60;30.77;99105.25;4487095;32;20161;-83
2022/05/06 11:20:23;;;;;;;13.38;5.20;;;;;;;27.68;30.15;99113.31;4487118;32;20115;-83
2022/05/06 11:22:52;;;;;;;11.30;5.28;;;;;;;27.67;30.89;99108.09;4487028;32;20190;-83
2022/05/06 11:25:18;;;;;;;10.65;5.25;;;;;;;27.83;30.23;99106.03;4472717;32;20105;-83
2022/05/06 11:27:43;;;;;;;11.15;5.60;;;;;;;27.98;29.50;99113.31;4486833;32;20091;-83
2022/05/06 11:30:16;;;;;;;12.93;5.60;;;;;;;27.83;29.80;99106.03;4486995;32;20137;-84
2022/05/06 11:32:50;;;;;;;10.93;5.12;;;;;;;27.67;30.31;99105.38;4472934;32;20077;-83
2022/05/06 11:35:20;;;;;;;11.27;5.05;;;;;;;27.71;29.64;99106.69;4472711;32;20096;-84
2022/05/06 11:37:46;;;;;;;12.32;5.07;;;;;;;27.65;30.15;99098.25;4472807;32;20422;-84
2022/05/06 11:40:35;;;;;;;10.68;5.47;;;;;;;27.64;30.54;99095.75;4486886;32;20080;-83
2022/05/06 11:43:21;;;;;;;10.93;5.20;;;;;;;27.67;31.36;99099.97;4486840;32;20073;-83
2022/05/06 11:48:45;;;;;;;14.05;4.80;;;;;;;27.79;29.87;99093.03;4486922;32;20123;-83
2022/05/06 11:51:12;;;;;;;13.07;4.75;;;;;;;27.74;30.10;99085.50;4472542;32;20092;-84
2022/05/06 11:53:40;;;;;;;9.40;4.85;;;;;;;27.64;30.69;99093.91;4472438;32;20088;-83
2022/05/06 11:56:06;;;;;;;11.88;5.20;;;;;;;27.62;30.40;99089.69;4486850;32;20127;-83
2022/05/06 11:58:33;;;;;;;9.90;5.10;;;;;;;27.89;30.74;99090.06;4486579;32;20440;-84
2022/05/06 12:00:59;;;;;;;10.45;4.85;;;;;;;27.97;29.79;99085.41;4486727;32;20080;-84
2022/05/06 12:03:26;;;;;;;10.43;4.45;;;;;;;27.91;29.13;99080.75;4472501;32;20122;-84